createdAt,value
2018-10-09T00:00:08.636Z,4.80
2018-10-09T00:02:37.327Z,5.40
2018-10-09T00:05:06.012Z,4.60
2018-10-09T00:07:34.484Z,5.47
2018-10-09T00:10:02.878Z,5.30
2018-10-09T00:12:31.258Z,5.40
2018-10-09T00:14:59.846Z,5.07
2018-10-09T00:17:28.551Z,5.53
2018-10-09T00:19:57.242Z,5.23
2018-10-09T00:22:36.302Z,5.27
2018-10-09T00:25:05.378Z,5.60
2018-10-09T00:27:33.971Z,5.33
2018-10-09T00:30:02.443Z,5.37
2018-10-09T00:32:30.831Z,5.50
2018-10-09T00:34:59.258Z,5.80
2018-10-09T00:37:27.830Z,5.63
2018-10-09T00:39:56.513Z,5.23
2018-10-09T00:42:25.006Z,5.70
2018-10-09T00:44:53.614Z,5.97
2018-10-09T00:47:22.078Z,5.83
2018-10-09T00:49:50.470Z,5.50
2018-10-09T00:52:18.859Z,6.40
2018-10-09T00:54:47.591Z,6.63
2018-10-09T00:57:16.274Z,6.43
2018-10-09T00:59:44.751Z,6.10
2018-10-09T01:02:13.126Z,6.40
2018-10-09T01:04:41.724Z,5.70
2018-10-09T01:07:10.407Z,6.23
2018-10-09T01:09:38.886Z,6.10
2018-10-09T01:12:07.583Z,6.33
2018-10-09T01:14:36.279Z,6.53
2018-10-09T01:17:04.760Z,6.50
2018-10-09T01:19:33.151Z,6.67
2018-10-09T01:22:01.542Z,6.53
2018-10-09T01:24:29.917Z,6.67
2018-10-09T01:26:58.286Z,6.60
2018-10-09T01:29:26.690Z,7.00
2018-10-09T01:32:00.364Z,6.17
2018-10-09T01:34:28.851Z,7.03
2018-10-09T01:36:57.336Z,6.67
2018-10-09T01:39:25.714Z,7.73
2018-10-09T01:42:13.818Z,7.10
2018-10-09T01:44:42.289Z,7.50
2018-10-09T01:47:10.666Z,7.20
2018-10-09T01:49:39.092Z,6.87
2018-10-09T01:54:50.638Z,8.17
2018-10-09T01:57:19.023Z,8.43
2018-10-09T01:59:47.625Z,8.27
2018-10-09T02:02:16.099Z,8.37
2018-10-09T02:04:44.554Z,7.50
2018-10-09T02:07:12.935Z,8.07
2018-10-09T02:09:41.548Z,8.30
2018-10-09T02:12:10.002Z,7.90
2018-10-09T02:14:38.403Z,8.13
2018-10-09T02:17:06.795Z,7.30
2018-10-09T02:19:35.393Z,8.07
2018-10-09T02:22:04.103Z,8.30
2018-10-09T02:24:32.815Z,7.80
2018-10-09T02:27:01.415Z,8.73
2018-10-09T02:29:29.886Z,8.80
2018-10-09T02:31:58.303Z,8.97
2018-10-09T02:34:26.679Z,8.97
2018-10-09T02:36:55.276Z,8.90
2018-10-09T02:39:23.971Z,7.80
2018-10-09T02:41:52.666Z,8.40
2018-10-09T02:44:21.350Z,7.63
2018-10-09T02:46:49.827Z,7.87
2018-10-09T02:49:18.210Z,8.00
2018-10-09T02:51:46.590Z,7.83
2018-10-09T02:54:15.010Z,8.63
2018-10-09T02:56:43.406Z,7.80
2018-10-09T02:59:11.794Z,7.30
2018-10-09T03:01:40.415Z,8.03
2018-10-09T03:04:08.882Z,7.73
2018-10-09T03:06:37.287Z,8.00
2018-10-09T03:09:05.890Z,7.67
2018-10-09T03:11:34.286Z,8.73
2018-10-09T03:14:02.750Z,9.03
2018-10-09T03:16:31.362Z,8.67
2018-10-09T03:18:59.962Z,9.63
2018-10-09T03:21:28.356Z,9.73
2018-10-09T03:23:56.779Z,11.00
2018-10-09T03:26:25.158Z,11.63
2018-10-09T03:28:53.538Z,9.80
2018-10-09T03:31:22.203Z,11.47
2018-10-09T03:33:50.670Z,10.90
2018-10-09T03:36:19.082Z,10.73
2018-10-09T03:38:47.486Z,11.83
2018-10-09T03:41:15.870Z,12.20
2018-10-09T03:43:44.475Z,11.13
2018-10-09T03:46:12.962Z,9.87
2018-10-09T03:48:41.340Z,9.13
2018-10-09T03:51:09.754Z,10.00
2018-10-09T03:53:38.355Z,9.70
2018-10-09T03:56:06.866Z,10.77
2018-10-09T03:58:35.250Z,9.70
2018-10-09T04:01:03.710Z,9.87
2018-10-09T04:03:32.403Z,9.97
2018-10-09T04:06:00.876Z,9.80
2018-10-09T04:08:29.490Z,10.30
2018-10-09T04:10:58.107Z,10.80
2018-10-09T04:13:26.495Z,10.40
2018-10-09T04:15:54.898Z,10.50
2018-10-09T04:18:23.494Z,10.57
2018-10-09T04:20:52.180Z,10.33
2018-10-09T04:23:20.667Z,10.87
2018-10-09T04:25:49.064Z,11.03
2018-10-09T04:28:17.439Z,11.70
2018-10-09T04:30:45.854Z,10.30
2018-10-09T04:33:14.274Z,10.53
2018-10-09T04:35:42.770Z,10.20
2018-10-09T04:38:11.063Z,10.33
2018-10-09T04:40:39.654Z,10.90
2018-10-09T04:43:08.349Z,10.37
2018-10-09T04:45:36.913Z,10.13
2018-10-09T04:48:05.363Z,10.77
2018-10-09T04:50:33.782Z,10.60
2018-10-09T04:53:02.568Z,10.93
2018-10-09T04:55:31.005Z,10.20
2018-10-09T04:57:59.614Z,11.07
2018-10-09T05:00:28.107Z,9.43
2018-10-09T05:02:56.495Z,12.13
2018-10-09T05:05:24.884Z,11.20
2018-10-09T05:07:53.935Z,11.47
2018-10-09T05:10:22.435Z,11.33
2018-10-09T05:12:50.841Z,11.33
2018-10-09T05:15:19.253Z,10.63
2018-10-09T05:17:47.920Z,10.97
2018-10-09T05:20:16.326Z,11.20
2018-10-09T05:22:44.834Z,10.67
2018-10-09T05:25:13.444Z,11.33
2018-10-09T05:27:41.929Z,11.33
2018-10-09T05:30:10.336Z,10.87
2018-10-09T05:32:38.722Z,10.90
2018-10-09T05:35:07.180Z,11.10
2018-10-09T05:37:35.622Z,12.00
2018-10-09T05:40:04.214Z,11.13
2018-10-09T05:42:32.775Z,11.97
2018-10-09T05:45:01.187Z,11.33
2018-10-09T05:47:29.578Z,10.70
2018-10-09T05:49:58.200Z,11.47
2018-10-09T05:52:27.078Z,11.07
2018-10-09T05:54:55.720Z,11.97
2018-10-09T05:57:24.274Z,13.97
2018-10-09T05:59:52.674Z,13.23
2018-10-09T06:02:21.091Z,12.57
2018-10-09T06:04:49.487Z,12.23
2018-10-09T06:07:18.127Z,13.13
2018-10-09T06:09:46.823Z,12.07
2018-10-09T06:12:15.291Z,14.80
2018-10-09T06:14:43.970Z,15.17
2018-10-09T06:17:12.655Z,12.93
2018-10-09T06:19:41.139Z,11.47
2018-10-09T06:22:09.760Z,12.87
2018-10-09T06:24:38.460Z,11.80
2018-10-09T06:27:06.944Z,11.43
2018-10-09T06:29:35.579Z,11.73
2018-10-09T06:32:04.068Z,11.37
2018-10-09T06:34:32.659Z,11.93
2018-10-09T06:37:01.154Z,11.27
2018-10-09T06:39:29.758Z,12.00
2018-10-09T06:41:58.151Z,11.90
2018-10-09T06:44:26.759Z,12.87
2018-10-09T06:46:55.242Z,12.87
2018-10-09T06:49:23.860Z,12.67
2018-10-09T06:51:52.426Z,13.20
2018-10-09T06:54:20.871Z,12.50
2018-10-09T06:56:49.193Z,12.70
2018-10-09T06:59:17.798Z,13.50
2018-10-09T07:01:46.327Z,13.13
2018-10-09T07:04:14.931Z,14.17
2018-10-09T07:06:43.639Z,14.97
2018-10-09T07:09:12.607Z,15.03
2018-10-09T07:11:41.146Z,14.80
2018-10-09T07:14:09.486Z,14.77
2018-10-09T07:16:38.119Z,14.60
2018-10-09T07:19:06.585Z,15.33
2018-10-09T07:21:35.024Z,15.13
2018-10-09T07:24:03.604Z,15.10
2018-10-09T07:26:32.296Z,15.30
2018-10-09T07:29:00.788Z,14.90
2018-10-09T07:31:29.239Z,15.60
2018-10-09T07:33:57.639Z,14.70
2018-10-09T07:36:26.273Z,15.20
2018-10-09T07:38:54.795Z,15.37
2018-10-09T07:41:23.278Z,16.43
2018-10-09T07:43:51.959Z,15.70
2018-10-09T07:46:20.623Z,15.90
2018-10-09T07:48:49.112Z,16.80
2018-10-09T07:51:17.791Z,15.60
2018-10-09T07:53:46.496Z,15.33
2018-10-09T07:56:15.000Z,15.67
2018-10-09T07:58:43.471Z,15.20
2018-10-09T08:01:11.947Z,14.93
2018-10-09T08:03:40.564Z,15.27
2018-10-09T08:06:09.136Z,13.87
2018-10-09T08:08:37.553Z,14.13
2018-10-09T08:11:05.956Z,13.00
2018-10-09T08:13:34.576Z,12.87
2018-10-09T08:16:03.051Z,14.33
2018-10-09T08:18:31.563Z,11.87
2018-10-09T08:21:00.188Z,13.77
2018-10-09T08:23:28.890Z,12.50
2018-10-09T08:25:57.374Z,11.17
2018-10-09T08:28:26.009Z,11.57
2018-10-09T08:30:54.704Z,11.97
2018-10-09T08:33:23.212Z,12.13
2018-10-09T08:35:51.663Z,12.43
2018-10-09T08:38:20.296Z,12.87
2018-10-09T08:40:48.795Z,12.37
2018-10-09T08:43:17.378Z,11.90
2018-10-09T08:45:45.829Z,10.27
2018-10-09T08:48:14.423Z,10.07
2018-10-09T08:50:42.920Z,11.20
2018-10-09T08:53:11.331Z,11.57
2018-10-09T08:55:39.946Z,12.33
2018-10-09T08:58:08.707Z,11.10
2018-10-09T09:00:37.195Z,10.77
2018-10-09T09:03:05.724Z,12.10
2018-10-09T09:05:34.139Z,12.10
2018-10-09T09:08:02.770Z,11.03
2018-10-09T09:10:31.259Z,11.20
2018-10-09T09:12:59.897Z,11.57
2018-10-09T09:15:28.729Z,12.17
2018-10-09T09:17:57.103Z,11.60
2018-10-09T09:20:25.808Z,12.50
2018-10-09T09:22:54.251Z,11.30
2018-10-09T09:25:22.868Z,10.43
2018-10-09T09:27:51.443Z,10.57
2018-10-09T09:30:19.767Z,11.00
2018-10-09T09:32:48.320Z,11.40
2018-10-09T09:35:16.776Z,11.07
2018-10-09T09:37:45.180Z,11.03
2018-10-09T09:40:13.779Z,10.43
2018-10-09T09:42:42.325Z,10.97
2018-10-09T09:45:11.960Z,11.03
2018-10-09T09:47:40.655Z,10.77
2018-10-09T09:50:09.143Z,11.07
2018-10-09T09:52:37.613Z,10.63
2018-10-09T09:55:06.220Z,10.30
2018-10-09T09:57:34.960Z,10.70
2018-10-09T10:00:03.439Z,9.87
2018-10-09T10:02:31.841Z,8.97
2018-10-09T10:05:00.243Z,9.53
2018-10-09T10:07:28.627Z,10.40
2018-10-09T10:10:11.808Z,10.13
2018-10-09T10:12:40.261Z,8.90
2018-10-09T10:15:08.872Z,9.87
2018-10-09T10:17:37.388Z,11.60
2018-10-09T10:20:05.819Z,10.80
2018-10-09T10:22:34.551Z,11.93
2018-10-09T10:25:03.339Z,13.43
2018-10-09T10:27:31.810Z,12.73
2018-10-09T10:30:00.212Z,13.33
2018-10-09T10:32:28.615Z,12.93
2018-10-09T10:34:57.029Z,12.60
2018-10-09T10:37:25.644Z,12.70
2018-10-09T10:39:54.179Z,14.53
2018-10-09T10:42:22.566Z,13.97
2018-10-09T10:44:50.970Z,13.77
2018-10-09T10:47:19.707Z,13.83
2018-10-09T10:49:48.484Z,15.20
2018-10-09T10:52:16.998Z,14.30
2018-10-09T10:54:45.713Z,13.57
2018-10-09T10:57:14.282Z,12.60
2018-10-09T10:59:42.784Z,14.47
2018-10-09T11:02:11.183Z,13.30
2018-10-09T11:04:39.798Z,13.87
2018-10-09T11:07:08.295Z,13.40
2018-10-09T11:09:36.706Z,12.73
2018-10-09T11:12:05.161Z,12.20
2018-10-09T11:14:33.602Z,12.83
2018-10-09T11:17:02.194Z,11.67
2018-10-09T11:19:30.909Z,12.53
2018-10-09T11:21:59.446Z,13.73
2018-10-09T11:24:28.113Z,13.03
2018-10-09T11:26:56.835Z,13.83
2018-10-09T11:29:25.324Z,13.03
2018-10-09T11:31:53.992Z,13.23
2018-10-09T11:34:22.458Z,12.63
2018-10-09T11:36:50.954Z,12.33
2018-10-09T11:39:19.792Z,11.50
2018-10-09T11:41:48.495Z,11.77
2018-10-09T11:44:17.051Z,11.70
2018-10-09T11:46:45.730Z,12.47
2018-10-09T11:49:15.163Z,11.33
2018-10-09T11:51:43.798Z,11.40
2018-10-09T11:54:12.300Z,11.90
2018-10-09T11:56:40.903Z,12.53
2018-10-09T11:59:09.426Z,11.93
2018-10-09T12:01:37.795Z,13.03
2018-10-09T12:04:06.190Z,11.90
2018-10-09T12:06:34.811Z,12.73
2018-10-09T12:09:03.579Z,13.23
2018-10-09T12:11:32.231Z,13.17
2018-10-09T12:14:00.936Z,14.20
2018-10-09T12:16:29.419Z,10.83
2018-10-09T12:18:57.814Z,11.53
2018-10-09T12:21:26.533Z,10.97
2018-10-09T12:23:55.075Z,10.63
2018-10-09T12:26:23.458Z,10.40
2018-10-09T12:28:51.980Z,11.87
2018-10-09T12:31:20.388Z,12.00
2018-10-09T12:33:48.949Z,10.27
2018-10-09T12:36:17.328Z,11.33
2018-10-09T12:38:45.758Z,11.37
2018-10-09T12:41:14.739Z,10.47
2018-10-09T12:43:43.936Z,10.93
2018-10-09T12:46:12.322Z,10.43
2018-10-09T12:48:40.936Z,10.07
2018-10-09T12:51:09.425Z,11.30
2018-10-09T12:53:38.049Z,11.53
2018-10-09T12:56:06.526Z,11.23
2018-10-09T12:58:34.907Z,10.50
2018-10-09T13:01:03.534Z,10.27
2018-10-09T13:03:32.219Z,10.43
2018-10-09T13:06:00.891Z,9.63
2018-10-09T13:08:29.603Z,9.47
2018-10-09T13:10:58.079Z,10.43
2018-10-09T13:13:26.672Z,10.37
2018-10-09T13:15:55.179Z,8.83
2018-10-09T13:18:23.785Z,9.27
2018-10-09T13:21:23.582Z,9.47
2018-10-09T13:23:52.322Z,9.83
2018-10-09T13:26:20.788Z,9.13
2018-10-09T13:28:49.189Z,10.40
2018-10-09T13:31:17.799Z,9.37
2018-10-09T13:33:46.480Z,9.77
2018-10-09T13:36:14.985Z,9.43
2018-10-09T13:38:43.355Z,9.30
2018-10-09T13:41:12.063Z,9.23
2018-10-09T13:43:40.492Z,9.97
2018-10-09T13:46:09.476Z,9.17
2018-10-09T13:48:37.992Z,10.53
2018-10-09T13:51:06.768Z,9.77
2018-10-09T13:53:35.255Z,9.40
2018-10-09T13:56:03.857Z,9.40
2018-10-09T13:58:32.572Z,10.10
2018-10-09T14:01:01.261Z,9.40
2018-10-09T14:03:29.956Z,9.57
2018-10-09T14:05:58.727Z,9.23
2018-10-09T14:08:27.148Z,9.73
2018-10-09T14:10:55.735Z,10.13
2018-10-09T14:13:24.515Z,10.43
2018-10-09T14:15:53.009Z,9.73
2018-10-09T14:18:21.430Z,8.30
2018-10-09T14:20:49.867Z,9.07
2018-10-09T14:23:18.325Z,9.90
2018-10-09T14:25:46.871Z,10.13
2018-10-09T14:28:15.370Z,9.10
2018-10-09T14:30:43.992Z,9.00
2018-10-09T14:33:12.483Z,9.13
2018-10-09T14:35:40.906Z,7.50
2018-10-09T14:38:09.313Z,8.87
2018-10-09T14:40:37.935Z,9.90
2018-10-09T14:43:06.761Z,8.83
2018-10-09T14:45:35.351Z,8.57
2018-10-09T14:48:03.983Z,9.30
2018-10-09T14:50:32.473Z,7.90
2018-10-09T14:53:01.075Z,7.70
2018-10-09T14:55:29.574Z,8.03
2018-10-09T14:57:58.201Z,7.90
2018-10-09T15:00:27.001Z,8.43
2018-10-09T15:02:55.579Z,7.80
2018-10-09T15:05:24.035Z,8.30
2018-10-09T15:07:52.643Z,7.93
2018-10-09T15:10:21.139Z,7.60
2018-10-09T15:12:49.764Z,7.37
2018-10-09T15:15:18.456Z,7.80
2018-10-09T15:17:47.152Z,8.37
2018-10-09T15:20:15.641Z,7.37
2018-10-09T15:22:44.115Z,7.97
2018-10-09T15:25:12.734Z,7.00
2018-10-09T15:27:41.444Z,8.07
2018-10-09T15:30:09.919Z,8.77
2018-10-09T15:32:38.445Z,8.33
2018-10-09T15:35:07.091Z,8.47
2018-10-09T15:37:35.580Z,9.03
2018-10-09T15:40:04.373Z,8.77
2018-10-09T15:42:32.851Z,8.33
2018-10-09T15:45:01.244Z,7.93
2018-10-09T15:47:29.668Z,8.47
2018-10-09T15:49:58.640Z,7.77
2018-10-09T15:52:27.281Z,8.60
2018-10-09T15:54:55.688Z,8.00
2018-10-09T15:57:24.351Z,7.50
2018-10-09T15:59:53.044Z,8.37
2018-10-09T16:02:21.612Z,6.80
2018-10-09T16:04:50.063Z,6.90
2018-10-09T16:07:18.675Z,6.33
2018-10-09T16:09:47.148Z,6.27
2018-10-09T16:12:15.773Z,6.33
2018-10-09T16:14:44.277Z,7.20
2018-10-09T16:17:12.911Z,7.30
2018-10-09T16:19:41.391Z,6.70
2018-10-09T16:22:09.878Z,6.53
2018-10-09T16:24:38.488Z,6.27
2018-10-09T16:27:06.981Z,7.33
2018-10-09T16:29:35.596Z,6.93
2018-10-09T16:32:04.125Z,6.70
2018-10-09T16:34:32.807Z,6.57
2018-10-09T16:37:01.322Z,6.63
2018-10-09T16:39:29.847Z,6.50
2018-10-09T16:41:58.602Z,6.20
2018-10-09T16:44:27.295Z,6.50
2018-10-09T16:46:55.801Z,7.30
2018-10-09T16:49:24.452Z,6.43
2018-10-09T16:51:52.992Z,7.40
2018-10-09T16:54:21.589Z,8.03
2018-10-09T16:56:50.808Z,6.63
2018-10-09T16:59:19.195Z,7.27
2018-10-09T17:01:47.616Z,7.90
2018-10-09T17:04:16.008Z,7.93
2018-10-09T17:06:44.432Z,7.07
2018-10-09T17:09:12.999Z,7.30
2018-10-09T17:11:42.136Z,7.07
2018-10-09T17:14:11.144Z,8.00
2018-10-09T17:16:39.856Z,6.90
2018-10-09T17:19:08.639Z,6.47
2018-10-09T17:21:37.148Z,6.53
2018-10-09T17:24:05.548Z,6.73
2018-10-09T17:26:34.164Z,6.60
2018-10-09T17:29:02.856Z,7.00
2018-10-09T17:31:31.333Z,7.00
2018-10-09T17:33:59.943Z,6.47
2018-10-09T17:36:28.636Z,6.53
2018-10-09T17:38:57.111Z,7.37
2018-10-09T17:41:25.599Z,6.80
2018-10-09T17:43:54.199Z,6.97
2018-10-09T17:46:22.996Z,6.87
2018-10-09T17:48:51.380Z,7.37
2018-10-09T17:51:20.016Z,7.77
2018-10-09T17:53:48.737Z,7.03
2018-10-09T17:56:17.191Z,7.43
2018-10-09T17:58:45.566Z,6.70
2018-10-09T18:01:14.237Z,7.53
2018-10-09T18:03:42.897Z,7.53
2018-10-09T18:06:11.376Z,7.63
2018-10-09T18:08:40.032Z,7.70
2018-10-09T18:11:08.458Z,8.20
2018-10-09T18:13:37.067Z,7.90
2018-10-09T18:16:06.372Z,7.73
2018-10-09T18:18:35.051Z,8.63
2018-10-09T18:21:03.699Z,8.30
2018-10-09T18:23:32.304Z,8.10
2018-10-09T18:26:01.333Z,7.57
2018-10-09T18:28:30.233Z,7.73
2018-10-09T18:30:58.755Z,7.40
2018-10-09T18:33:27.160Z,7.00
2018-10-09T18:35:55.539Z,7.67
2018-10-09T18:38:23.952Z,8.07
2018-10-09T18:40:52.820Z,7.40
2018-10-09T18:43:21.119Z,6.70
2018-10-09T18:45:49.504Z,7.53
2018-10-09T18:48:17.894Z,7.97
2018-10-09T18:50:46.500Z,7.60
2018-10-09T18:53:15.248Z,8.50
2018-10-09T18:55:43.960Z,7.40
2018-10-09T18:58:12.430Z,7.50
2018-10-09T19:00:41.037Z,8.30
2018-10-09T19:03:09.548Z,8.67
2018-10-09T19:05:37.936Z,8.83
2018-10-09T19:08:06.551Z,8.03
2018-10-09T19:10:35.034Z,8.83
2018-10-09T19:13:03.421Z,8.87
2018-10-09T19:15:31.805Z,8.47
2018-10-09T19:18:00.263Z,9.00
2018-10-09T19:20:28.803Z,7.90
2018-10-09T19:22:57.315Z,8.37
2018-10-09T19:25:25.728Z,7.93
2018-10-09T19:27:54.147Z,8.40
2018-10-09T19:30:22.555Z,8.00
2018-10-09T19:32:51.304Z,8.60
2018-10-09T19:35:19.744Z,8.60
2018-10-09T19:37:48.124Z,7.70
2018-10-09T19:40:16.731Z,7.90
2018-10-09T19:42:45.275Z,7.53
2018-10-09T19:45:13.670Z,8.43
2018-10-09T19:47:42.074Z,6.60
2018-10-09T19:50:10.454Z,8.70
2018-10-09T19:52:44.111Z,8.77
2018-10-09T19:55:12.708Z,8.53
2018-10-09T19:57:41.102Z,8.80
2018-10-09T20:00:09.507Z,7.87
2018-10-09T20:02:37.911Z,8.67
2018-10-09T20:05:06.325Z,8.30
2018-10-09T20:07:34.777Z,7.90
2018-10-09T20:10:03.126Z,8.63
2018-10-09T20:12:31.550Z,7.70
2018-10-09T20:14:59.934Z,8.07
2018-10-09T20:17:28.351Z,7.53
2018-10-09T20:19:56.948Z,7.50
2018-10-09T20:22:25.435Z,8.03
2018-10-09T20:24:54.341Z,7.27
2018-10-09T20:27:22.747Z,7.67
2018-10-09T20:29:51.175Z,6.93
2018-10-09T20:32:19.579Z,7.53
2018-10-09T20:34:48.178Z,7.43
2018-10-09T20:37:16.679Z,7.03
2018-10-09T20:39:45.064Z,7.53
2018-10-09T20:42:13.561Z,7.17
2018-10-09T20:44:42.174Z,7.63
2018-10-09T20:47:10.868Z,7.00
2018-10-09T20:49:39.342Z,7.83
2018-10-09T20:52:07.760Z,7.67
2018-10-09T20:54:36.143Z,7.50
2018-10-09T20:57:04.568Z,7.97
2018-10-09T20:59:33.201Z,8.10
2018-10-09T21:02:01.580Z,7.77
2018-10-09T21:04:29.968Z,7.37
2018-10-09T21:06:58.587Z,8.50
2018-10-09T21:09:27.304Z,7.60
2018-10-09T21:11:55.754Z,7.80
2018-10-09T21:14:24.167Z,7.57
2018-10-09T21:16:53.270Z,7.40
2018-10-09T21:19:21.650Z,7.87
2018-10-09T21:21:50.060Z,7.50
2018-10-09T21:24:18.439Z,6.90
2018-10-09T21:26:47.052Z,7.00
2018-10-09T21:29:15.571Z,7.87
2018-10-09T21:31:43.955Z,7.90
2018-10-09T21:34:12.561Z,7.80
2018-10-09T21:36:41.414Z,8.97
2018-10-09T21:39:10.243Z,8.27
2018-10-09T21:41:38.728Z,7.83
2018-10-09T21:44:07.122Z,7.20
2018-10-09T21:46:35.510Z,7.87
2018-10-09T21:49:03.900Z,7.87
2018-10-09T21:51:32.520Z,6.90
2018-10-09T21:54:01.213Z,7.73
2018-10-09T21:56:29.683Z,6.97
2018-10-09T21:58:58.326Z,7.53
2018-10-09T22:01:26.715Z,7.50
2018-10-09T22:03:55.099Z,6.50
2018-10-09T22:06:23.599Z,7.70
2018-10-09T22:08:52.187Z,7.77
2018-10-09T22:11:20.888Z,8.03
2018-10-09T22:13:49.373Z,7.87
2018-10-09T22:16:18.279Z,7.27
2018-10-09T22:18:46.680Z,7.43
2018-10-09T22:21:15.073Z,7.40
2018-10-09T22:23:43.460Z,7.37
2018-10-09T22:26:11.834Z,7.67
2018-10-09T22:28:40.236Z,7.87
2018-10-09T22:31:08.926Z,8.27
2018-10-09T22:33:37.406Z,7.37
2018-10-09T22:36:05.798Z,7.63
2018-10-09T22:38:34.281Z,7.60
2018-10-09T22:41:02.563Z,7.80
2018-10-09T22:43:31.173Z,7.90
2018-10-09T22:46:00.454Z,8.70
2018-10-09T22:48:29.151Z,8.37
2018-10-09T22:50:57.555Z,8.63
2018-10-09T22:53:25.951Z,8.93
2018-10-09T22:55:54.324Z,8.07
2018-10-09T22:58:22.732Z,8.07
2018-10-09T23:00:51.134Z,8.57
2018-10-09T23:03:19.544Z,7.93
2018-10-09T23:05:47.943Z,8.53
2018-10-09T23:08:16.537Z,8.50
2018-10-09T23:10:45.219Z,8.77
2018-10-09T23:13:13.723Z,9.63
2018-10-09T23:15:42.379Z,9.60
2018-10-09T23:18:11.072Z,9.73
2018-10-09T23:20:39.575Z,11.40
2018-10-09T23:23:07.966Z,11.00
2018-10-09T23:25:36.595Z,10.43
2018-10-09T23:28:05.579Z,11.03
2018-10-09T23:30:34.146Z,11.23
2018-10-09T23:33:02.758Z,12.13
2018-10-09T23:35:31.455Z,11.57
2018-10-09T23:37:59.935Z,10.80
2018-10-09T23:40:28.556Z,11.27
2018-10-09T23:42:57.287Z,10.37
2018-10-09T23:45:25.744Z,9.53
2018-10-09T23:47:59.642Z,9.63
2018-10-09T23:50:28.026Z,10.07
2018-10-09T23:53:06.995Z,9.83
2018-10-09T23:55:36.667Z,10.73
